createdAt,value
2023-03-29T00:00:14.505Z,34.67
2023-03-29T00:03:04.459Z,34.72
2023-03-29T00:05:36.327Z,34.99
2023-03-29T00:08:04.602Z,34.41
2023-03-29T00:10:34.201Z,34.47
2023-03-29T00:13:02.625Z,34.22
2023-03-29T00:15:30.691Z,34.37
2023-03-29T00:17:58.471Z,34.39
2023-03-29T00:20:27.250Z,34.59
2023-03-29T00:22:55.058Z,34.96
2023-03-29T00:25:23.396Z,34.93
2023-03-29T00:27:51.249Z,34.40
2023-03-29T00:30:19.477Z,34.94
2023-03-29T00:32:47.336Z,34.86
2023-03-29T00:35:15.506Z,34.52
2023-03-29T00:37:43.349Z,34.44
2023-03-29T00:40:15.784Z,35.09
2023-03-29T00:42:46.458Z,35.03
2023-03-29T00:45:21.024Z,35.36
2023-03-29T00:47:55.897Z,35.62
2023-03-29T00:50:29.895Z,35.63
2023-03-29T00:52:57.630Z,36.06
2023-03-29T00:55:29.758Z,35.61
2023-03-29T00:57:58.327Z,35.56
2023-03-29T01:00:32.035Z,35.51
2023-03-29T01:03:02.104Z,35.78
2023-03-29T01:05:33.563Z,35.53
2023-03-29T01:08:06.914Z,35.80
2023-03-29T01:10:35.448Z,35.09
2023-03-29T01:13:06.955Z,34.48
2023-03-29T01:15:35.602Z,34.70
2023-03-29T01:18:03.658Z,34.39
2023-03-29T01:20:43.682Z,34.58
2023-03-29T01:23:28.864Z,34.32
2023-03-29T01:26:12.857Z,34.48
2023-03-29T01:28:45.817Z,34.83
2023-03-29T01:31:22.115Z,34.98
2023-03-29T01:33:52.352Z,35.42
2023-03-29T01:36:20.420Z,35.50
2023-03-29T01:39:07.607Z,35.48
2023-03-29T01:41:40.537Z,36.96
2023-03-29T01:44:19.765Z,38.05
2023-03-29T01:46:52.619Z,38.18
2023-03-29T01:49:27.825Z,38.10
2023-03-29T01:52:00.106Z,38.09
2023-03-29T01:54:40.462Z,39.31
2023-03-29T01:57:10.662Z,39.01
2023-03-29T01:59:41.493Z,39.21
2023-03-29T02:02:12.178Z,38.82
2023-03-29T02:04:41.908Z,38.77
2023-03-29T02:07:10.851Z,39.94
2023-03-29T02:09:39.059Z,40.42
2023-03-29T02:12:07.508Z,40.70
2023-03-29T02:14:35.788Z,40.20
2023-03-29T02:17:21.031Z,41.30
2023-03-29T02:19:53.699Z,40.54
2023-03-29T02:22:27.064Z,40.46
2023-03-29T02:24:59.484Z,40.29
2023-03-29T02:27:29.276Z,40.17
2023-03-29T02:29:58.628Z,39.90
2023-03-29T02:32:33.075Z,40.02
2023-03-29T02:35:04.952Z,39.89
2023-03-29T02:37:36.747Z,39.66
2023-03-29T02:40:08.449Z,39.88
2023-03-29T02:42:38.118Z,39.18
2023-03-29T02:45:08.301Z,38.97
2023-03-29T02:47:46.110Z,38.45
2023-03-29T02:50:14.313Z,38.30
2023-03-29T02:52:45.562Z,38.31
2023-03-29T02:55:16.977Z,37.91
2023-03-29T02:57:45.047Z,38.22
2023-03-29T03:00:14.759Z,37.80
2023-03-29T03:02:43.217Z,37.40
2023-03-29T03:05:12.443Z,37.08
2023-03-29T03:07:40.825Z,37.35
2023-03-29T03:10:10.401Z,37.42
2023-03-29T03:12:39.366Z,38.25
2023-03-29T03:15:07.556Z,38.42
2023-03-29T03:17:41.194Z,38.11
2023-03-29T03:20:13.061Z,37.87
2023-03-29T03:22:44.299Z,38.08
2023-03-29T03:25:12.060Z,38.74
2023-03-29T03:27:40.206Z,39.35
2023-03-29T03:30:08.733Z,39.27
2023-03-29T03:33:00.555Z,39.58
2023-03-29T03:35:48.285Z,39.73
2023-03-29T03:38:17.927Z,39.22
2023-03-29T03:40:53.851Z,39.73
2023-03-29T03:43:22.298Z,40.10
2023-03-29T03:45:51.391Z,39.69
2023-03-29T03:48:23.736Z,40.09
2023-03-29T03:51:27.356Z,39.88
2023-03-29T03:53:55.630Z,40.11
2023-03-29T03:56:35.287Z,41.97
2023-03-29T03:59:13.385Z,43.21
2023-03-29T04:01:51.835Z,42.25
2023-03-29T04:04:23.676Z,42.47
2023-03-29T04:07:05.304Z,42.40
2023-03-29T04:09:36.515Z,42.89
2023-03-29T04:12:24.165Z,43.45
2023-03-29T04:14:53.564Z,43.15
2023-03-29T04:17:23.119Z,43.76
2023-03-29T04:19:57.895Z,43.22
2023-03-29T04:22:28.186Z,42.79
2023-03-29T04:24:56.476Z,42.96
2023-03-29T04:27:43.067Z,42.36
2023-03-29T04:30:34.166Z,41.84
2023-03-29T04:33:17.998Z,42.11
2023-03-29T04:35:51.448Z,41.98
2023-03-29T04:38:23.654Z,41.55
2023-03-29T04:40:55.484Z,41.70
2023-03-29T04:43:47.189Z,41.30
2023-03-29T04:46:35.522Z,40.94
2023-03-29T04:49:11.937Z,41.52
2023-03-29T04:51:43.671Z,41.27
2023-03-29T04:54:12.198Z,40.51
2023-03-29T04:57:18.799Z,40.34
2023-03-29T04:59:59.876Z,40.38
2023-03-29T05:03:00.399Z,40.03
2023-03-29T05:05:31.571Z,40.00
2023-03-29T05:08:03.656Z,39.93
2023-03-29T05:10:50.991Z,40.26
2023-03-29T05:13:19.145Z,40.25
2023-03-29T05:15:47.736Z,40.26
2023-03-29T05:18:15.800Z,39.59
2023-03-29T05:20:43.407Z,39.19
2023-03-29T05:23:17.701Z,39.39
2023-03-29T05:26:10.071Z,39.51
2023-03-29T05:28:40.780Z,39.05
2023-03-29T05:31:08.940Z,38.91
2023-03-29T05:33:40.902Z,38.95
2023-03-29T05:36:11.264Z,38.13
2023-03-29T05:38:46.976Z,38.43
2023-03-29T05:41:16.069Z,38.94
2023-03-29T05:44:02.838Z,39.30
2023-03-29T05:46:31.724Z,39.11
2023-03-29T05:49:04.391Z,38.55
2023-03-29T05:51:50.056Z,40.37
2023-03-29T05:54:18.285Z,42.35
2023-03-29T05:56:46.193Z,43.23
2023-03-29T05:59:18.052Z,43.12
2023-03-29T06:01:48.897Z,42.43
2023-03-29T06:04:20.984Z,41.47
2023-03-29T06:07:15.053Z,40.11
2023-03-29T06:09:50.594Z,40.73
2023-03-29T06:12:20.396Z,41.46
2023-03-29T06:15:04.158Z,41.94
2023-03-29T06:17:50.941Z,41.86
2023-03-29T06:20:19.198Z,42.72
2023-03-29T06:22:52.797Z,43.69
2023-03-29T06:25:21.344Z,43.90
2023-03-29T06:27:52.561Z,43.27
2023-03-29T06:30:21.667Z,43.60
2023-03-29T06:32:52.920Z,44.85
2023-03-29T06:35:43.978Z,45.56
2023-03-29T06:38:15.732Z,45.53
2023-03-29T06:41:13.162Z,44.09
2023-03-29T06:43:55.264Z,42.62
2023-03-29T06:46:26.357Z,41.76
2023-03-29T06:48:57.007Z,41.15
2023-03-29T06:51:32.715Z,38.91
2023-03-29T06:54:01.046Z,38.88
2023-03-29T06:56:32.845Z,39.19
2023-03-29T06:59:07.175Z,38.79
2023-03-29T07:01:45.331Z,37.77
2023-03-29T07:04:42.874Z,37.27
2023-03-29T07:07:27.928Z,37.40
2023-03-29T07:10:09.624Z,36.62
2023-03-29T07:12:58.460Z,36.51
2023-03-29T07:15:27.974Z,35.89
2023-03-29T07:18:13.084Z,35.77
2023-03-29T07:20:42.204Z,35.49
2023-03-29T07:23:11.844Z,34.63
2023-03-29T07:25:39.726Z,35.38
2023-03-29T07:28:08.514Z,34.92
2023-03-29T07:30:37.323Z,34.41
2023-03-29T07:33:18.658Z,34.03
2023-03-29T07:35:52.168Z,33.69
2023-03-29T07:38:20.742Z,33.02
2023-03-29T07:40:54.731Z,34.31
2023-03-29T07:43:55.732Z,34.92
2023-03-29T07:46:25.631Z,34.22
2023-03-29T07:48:53.902Z,33.67
2023-03-29T07:51:22.604Z,34.30
2023-03-29T07:53:55.048Z,34.01
2023-03-29T07:56:38.374Z,33.50
2023-03-29T07:59:44.660Z,33.67
2023-03-29T08:02:21.559Z,34.64
2023-03-29T08:04:57.135Z,34.22
2023-03-29T08:07:31.142Z,34.29
2023-03-29T08:10:05.833Z,33.68
2023-03-29T08:12:52.689Z,32.44
2023-03-29T08:15:28.263Z,32.84
2023-03-29T08:17:56.108Z,34.64
2023-03-29T08:20:24.343Z,34.84
2023-03-29T08:22:55.942Z,35.49
2023-03-29T08:25:29.882Z,34.27
2023-03-29T08:27:59.201Z,35.18
2023-03-29T08:30:42.721Z,34.75
2023-03-29T08:33:10.587Z,34.89
2023-03-29T08:35:38.741Z,34.81
2023-03-29T08:38:16.513Z,35.88
2023-03-29T08:40:48.033Z,35.79
2023-03-29T08:43:21.017Z,35.60
2023-03-29T08:46:34.536Z,35.39
2023-03-29T08:49:11.201Z,35.52
2023-03-29T08:51:55.666Z,34.60
2023-03-29T08:54:27.069Z,34.10
2023-03-29T08:57:30.825Z,34.17
2023-03-29T09:00:06.075Z,33.14
2023-03-29T09:02:38.547Z,33.86
2023-03-29T09:05:15.685Z,33.69
2023-03-29T09:07:48.424Z,34.11
2023-03-29T09:10:18.488Z,33.37
2023-03-29T09:12:55.018Z,33.12
2023-03-29T09:15:33.603Z,33.00
2023-03-29T09:18:31.248Z,34.06
2023-03-29T09:21:08.323Z,34.08
2023-03-29T09:23:43.546Z,34.42
2023-03-29T09:26:35.323Z,34.17
2023-03-29T09:29:41.426Z,33.85
2023-03-29T09:32:32.186Z,34.53
2023-03-29T09:35:11.462Z,33.89
2023-03-29T09:37:40.694Z,33.48
2023-03-29T09:40:32.569Z,33.08
2023-03-29T09:43:24.971Z,33.55
2023-03-29T09:45:56.635Z,32.54
2023-03-29T09:48:26.541Z,31.74
2023-03-29T09:50:58.005Z,32.70
2023-03-29T09:53:26.676Z,32.79
2023-03-29T09:56:04.935Z,32.68
2023-03-29T09:58:42.778Z,33.10
2023-03-29T10:01:13.100Z,33.77
2023-03-29T10:03:41.728Z,33.58
2023-03-29T10:06:14.983Z,34.26
2023-03-29T10:08:51.918Z,34.37
2023-03-29T10:11:29.044Z,33.76
2023-03-29T10:14:01.975Z,33.01
2023-03-29T10:16:33.559Z,32.16
2023-03-29T10:19:15.485Z,32.74
2023-03-29T10:21:43.626Z,32.64
2023-03-29T10:24:11.674Z,33.31
2023-03-29T10:26:39.826Z,33.63
2023-03-29T10:29:08.803Z,32.13
2023-03-29T10:31:41.759Z,31.80
2023-03-29T10:34:12.547Z,34.05
2023-03-29T10:36:45.134Z,33.30
2023-03-29T10:39:15.767Z,33.55
2023-03-29T10:41:44.942Z,34.27
2023-03-29T10:44:32.799Z,34.16
2023-03-29T10:47:27.988Z,32.79
2023-03-29T10:49:58.333Z,33.11
2023-03-29T10:52:26.848Z,32.96
2023-03-29T10:54:55.969Z,33.81
2023-03-29T10:57:34.236Z,34.08
2023-03-29T11:00:11.061Z,32.78
2023-03-29T11:02:49.019Z,33.71
2023-03-29T11:05:31.206Z,33.34
2023-03-29T11:08:05.441Z,33.30
2023-03-29T11:10:47.850Z,32.29
2023-03-29T11:13:25.307Z,32.99
2023-03-29T11:16:02.826Z,33.42
2023-03-29T11:18:46.531Z,34.53
2023-03-29T11:21:14.203Z,34.57
2023-03-29T11:23:49.299Z,33.04
2023-03-29T11:26:22.982Z,34.22
2023-03-29T11:29:03.129Z,33.82
2023-03-29T11:31:41.670Z,34.56
2023-03-29T11:34:30.094Z,33.63
2023-03-29T11:37:16.252Z,36.49
2023-03-29T11:40:07.640Z,34.89
2023-03-29T11:42:38.979Z,34.48
2023-03-29T11:45:13.408Z,34.43
2023-03-29T11:47:43.138Z,36.61
2023-03-29T11:50:26.424Z,35.49
2023-03-29T11:53:01.640Z,33.93
2023-03-29T11:55:32.903Z,33.82
2023-03-29T11:58:00.650Z,34.11
2023-03-29T12:00:36.688Z,32.86
2023-03-29T12:03:13.385Z,32.20
2023-03-29T12:05:47.616Z,31.42
2023-03-29T12:08:18.107Z,30.45
2023-03-29T12:10:51.749Z,30.43
2023-03-29T12:13:24.227Z,30.35
2023-03-29T12:16:07.198Z,30.30
2023-03-29T12:18:42.477Z,28.21
2023-03-29T12:21:13.557Z,30.15
2023-03-29T12:23:42.629Z,30.60
2023-03-29T12:26:29.950Z,29.93
2023-03-29T12:29:07.459Z,30.22
2023-03-29T12:31:54.700Z,29.99
2023-03-29T12:34:40.943Z,31.85
2023-03-29T12:37:56.361Z,31.06
2023-03-29T12:41:04.220Z,31.69
2023-03-29T12:43:52.792Z,31.27
2023-03-29T12:46:54.557Z,29.94
2023-03-29T12:49:36.463Z,30.72
2023-03-29T12:52:08.803Z,32.70
2023-03-29T12:54:36.917Z,33.05
2023-03-29T12:57:21.541Z,31.12
2023-03-29T12:59:50.003Z,31.42
2023-03-29T13:02:18.231Z,30.16
2023-03-29T13:04:51.424Z,30.94
2023-03-29T13:07:22.473Z,31.49
2023-03-29T13:09:53.090Z,30.86
2023-03-29T13:12:39.833Z,29.79
2023-03-29T13:15:21.734Z,30.23
2023-03-29T13:18:17.437Z,31.87
2023-03-29T13:21:04.398Z,31.89
2023-03-29T13:23:50.977Z,30.08
2023-03-29T13:26:49.662Z,30.73
2023-03-29T13:29:23.351Z,29.84
2023-03-29T13:31:57.194Z,30.37
2023-03-29T13:34:40.302Z,30.49
2023-03-29T13:37:23.313Z,29.49
2023-03-29T13:39:53.161Z,29.53
2023-03-29T13:42:26.070Z,29.96
2023-03-29T13:45:05.668Z,30.10
2023-03-29T13:47:33.793Z,29.40
2023-03-29T13:50:05.954Z,29.61
2023-03-29T13:52:39.322Z,29.68
2023-03-29T13:55:16.142Z,30.26
2023-03-29T13:57:49.935Z,28.62
2023-03-29T14:00:41.334Z,27.24
2023-03-29T14:03:13.245Z,28.14
2023-03-29T14:05:42.528Z,27.57
2023-03-29T14:08:16.014Z,27.02
2023-03-29T14:10:44.928Z,28.52
2023-03-29T14:13:15.169Z,27.60
2023-03-29T14:15:48.730Z,28.67
2023-03-29T14:18:19.027Z,27.05
2023-03-29T14:20:49.564Z,26.53
2023-03-29T14:23:21.470Z,28.33
2023-03-29T14:25:49.400Z,29.50
2023-03-29T14:28:24.828Z,28.97
2023-03-29T14:30:53.025Z,29.16
2023-03-29T14:33:28.875Z,28.97
2023-03-29T14:35:58.947Z,27.44
2023-03-29T14:38:27.655Z,27.41
2023-03-29T14:40:59.023Z,26.82
2023-03-29T14:43:30.546Z,26.99
2023-03-29T14:45:58.878Z,27.24
2023-03-29T14:48:28.889Z,27.33
2023-03-29T14:50:56.983Z,27.47
2023-03-29T14:53:26.286Z,26.32
2023-03-29T14:55:54.290Z,27.04
2023-03-29T14:58:23.569Z,26.89
2023-03-29T15:00:52.088Z,28.94
2023-03-29T15:03:26.395Z,28.39
2023-03-29T15:05:57.409Z,30.05
2023-03-29T15:08:33.911Z,31.83
2023-03-29T15:11:03.153Z,31.31
2023-03-29T15:13:31.449Z,31.01
2023-03-29T15:16:03.792Z,30.48
2023-03-29T15:18:35.606Z,29.90
2023-03-29T15:21:05.066Z,32.11
2023-03-29T15:23:38.305Z,31.53
2023-03-29T15:26:26.868Z,31.62
2023-03-29T15:29:10.169Z,31.61
2023-03-29T15:31:39.691Z,32.00
2023-03-29T15:34:14.235Z,30.58
2023-03-29T15:36:43.510Z,31.68
2023-03-29T15:39:13.381Z,32.13
2023-03-29T15:41:41.903Z,32.03
2023-03-29T15:44:11.561Z,31.83
2023-03-29T15:46:39.763Z,30.77
2023-03-29T15:49:11.158Z,33.35
2023-03-29T15:51:39.072Z,33.58
2023-03-29T15:54:08.089Z,33.00
2023-03-29T15:56:48.462Z,32.83
2023-03-29T15:59:18.249Z,32.97
2023-03-29T16:01:47.276Z,33.79
2023-03-29T16:04:21.002Z,33.88
2023-03-29T16:06:50.188Z,33.26
2023-03-29T16:09:18.322Z,33.82
2023-03-29T16:11:47.108Z,34.69
2023-03-29T16:14:27.580Z,35.03
2023-03-29T16:16:55.844Z,33.60
2023-03-29T16:19:26.209Z,33.98
2023-03-29T16:21:54.479Z,35.59
2023-03-29T16:24:24.369Z,35.95
2023-03-29T16:26:55.395Z,35.85
2023-03-29T16:29:24.897Z,35.15
2023-03-29T16:31:53.222Z,33.92
2023-03-29T16:34:22.966Z,35.88
2023-03-29T16:36:51.339Z,37.09
2023-03-29T16:39:19.474Z,36.79
2023-03-29T16:41:49.390Z,36.91
2023-03-29T16:44:21.605Z,36.87
2023-03-29T16:46:51.804Z,36.57
2023-03-29T16:49:19.968Z,37.04
2023-03-29T16:51:48.417Z,38.47
2023-03-29T16:54:17.520Z,38.13
2023-03-29T16:56:45.403Z,38.59
2023-03-29T16:59:13.703Z,39.34
2023-03-29T17:01:41.634Z,38.99
2023-03-29T17:04:09.831Z,39.43
2023-03-29T17:06:37.686Z,40.57
2023-03-29T17:09:06.345Z,40.50
2023-03-29T17:11:34.819Z,41.33
2023-03-29T17:14:03.421Z,40.36
2023-03-29T17:16:31.309Z,41.52
2023-03-29T17:19:00.700Z,40.90
2023-03-29T17:21:29.750Z,41.20
2023-03-29T17:23:57.968Z,41.54
2023-03-29T17:26:26.375Z,41.88
2023-03-29T17:28:54.765Z,41.64
2023-03-29T17:31:22.635Z,41.83
2023-03-29T17:33:52.342Z,41.96
2023-03-29T17:36:24.246Z,41.82
2023-03-29T17:38:52.490Z,41.49
2023-03-29T17:41:20.479Z,42.33
2023-03-29T17:43:48.736Z,42.05
2023-03-29T17:46:17.936Z,42.71
2023-03-29T17:48:46.437Z,42.88
2023-03-29T17:51:14.321Z,43.02
2023-03-29T17:53:42.478Z,43.19
2023-03-29T17:56:10.281Z,43.46
2023-03-29T17:58:38.491Z,42.70
2023-03-29T18:01:09.764Z,42.83
2023-03-29T18:03:38.328Z,43.36
2023-03-29T18:06:06.615Z,43.63
2023-03-29T18:08:35.483Z,44.46
2023-03-29T18:11:12.280Z,44.13
2023-03-29T18:13:41.299Z,44.83
2023-03-29T18:16:09.479Z,44.39
2023-03-29T18:18:38.539Z,44.98
2023-03-29T18:21:11.328Z,45.16
2023-03-29T18:23:42.321Z,45.08
2023-03-29T18:26:10.235Z,44.76
2023-03-29T18:28:38.647Z,44.39
2023-03-29T18:31:06.762Z,44.26
2023-03-29T18:33:35.794Z,44.00
2023-03-29T18:36:05.087Z,44.85
2023-03-29T18:38:37.105Z,44.94
2023-03-29T18:41:06.306Z,45.75
2023-03-29T18:43:35.533Z,45.24
2023-03-29T18:46:03.712Z,45.07
2023-03-29T18:48:39.127Z,45.04
2023-03-29T18:51:07.631Z,45.80
2023-03-29T18:53:36.738Z,46.14
2023-03-29T18:56:05.328Z,45.86
2023-03-29T18:58:33.687Z,45.80
2023-03-29T19:01:03.143Z,45.70
2023-03-29T19:03:32.114Z,46.17
2023-03-29T19:06:01.549Z,46.66
2023-03-29T19:08:30.063Z,46.47
2023-03-29T19:11:01.909Z,45.99
2023-03-29T19:13:30.364Z,47.01
2023-03-29T19:15:58.466Z,47.41
2023-03-29T19:18:26.916Z,46.87
2023-03-29T19:20:55.107Z,46.60
2023-03-29T19:23:28.574Z,47.17
2023-03-29T19:25:57.666Z,47.31
2023-03-29T19:28:27.506Z,47.69
2023-03-29T19:30:56.086Z,47.09
2023-03-29T19:33:24.288Z,47.31
2023-03-29T19:35:52.514Z,46.89
2023-03-29T19:38:20.872Z,46.40
2023-03-29T19:40:49.682Z,47.41
2023-03-29T19:43:21.096Z,47.04
2023-03-29T19:45:50.281Z,47.38
2023-03-29T19:48:23.099Z,47.48
2023-03-29T19:50:52.208Z,47.46
2023-03-29T19:53:21.479Z,47.43
2023-03-29T19:55:50.567Z,47.10
2023-03-29T19:58:19.893Z,47.72
2023-03-29T20:00:54.008Z,47.77
2023-03-29T20:03:25.678Z,47.41
2023-03-29T20:05:57.572Z,47.26
2023-03-29T20:08:27.766Z,47.23
2023-03-29T20:11:01.008Z,46.69
2023-03-29T20:13:38.227Z,46.89
2023-03-29T20:16:09.567Z,47.49
2023-03-29T20:18:42.414Z,46.83
2023-03-29T20:21:11.809Z,47.11
2023-03-29T20:23:40.818Z,47.41
2023-03-29T20:26:09.303Z,47.31
2023-03-29T20:28:40.385Z,46.71
2023-03-29T20:31:11.020Z,46.63
2023-03-29T20:33:39.612Z,46.64
2023-03-29T20:36:08.755Z,46.59
2023-03-29T20:38:39.112Z,46.01
2023-03-29T20:41:09.564Z,46.56
2023-03-29T20:43:37.959Z,46.09
2023-03-29T20:46:14.544Z,46.23
2023-03-29T20:49:03.365Z,46.65
2023-03-29T20:51:32.235Z,46.39
2023-03-29T20:54:05.005Z,46.13
2023-03-29T20:56:34.133Z,46.75
2023-03-29T20:59:04.206Z,46.07
2023-03-29T21:01:32.896Z,46.54
2023-03-29T21:04:01.268Z,46.48
2023-03-29T21:06:31.104Z,46.16
2023-03-29T21:09:00.264Z,46.41
2023-03-29T21:11:28.008Z,46.59
2023-03-29T21:13:56.230Z,46.69
2023-03-29T21:16:25.645Z,46.73
2023-03-29T21:18:53.769Z,46.19
2023-03-29T21:21:23.170Z,46.51
2023-03-29T21:23:51.559Z,46.54
2023-03-29T21:26:19.332Z,46.72
2023-03-29T21:28:48.908Z,46.39
2023-03-29T21:31:16.687Z,46.72
2023-03-29T21:33:44.788Z,47.11
2023-03-29T21:36:12.524Z,46.67
2023-03-29T21:38:40.690Z,46.33
2023-03-29T21:41:12.269Z,45.97
2023-03-29T21:43:40.715Z,45.98
2023-03-29T21:46:08.520Z,45.66
2023-03-29T21:48:37.117Z,46.04
2023-03-29T21:51:06.640Z,46.33
2023-03-29T21:53:35.320Z,46.50
2023-03-29T21:56:03.259Z,46.57
2023-03-29T21:58:31.808Z,46.04
2023-03-29T22:00:59.822Z,46.58
2023-03-29T22:03:28.447Z,46.29
2023-03-29T22:06:01.383Z,46.20
2023-03-29T22:08:30.088Z,46.56
2023-03-29T22:10:57.991Z,46.50
2023-03-29T22:13:27.687Z,47.18
2023-03-29T22:16:01.213Z,47.03
2023-03-29T22:18:47.005Z,46.79
2023-03-29T22:21:17.704Z,46.95
2023-03-29T22:23:50.292Z,46.73
2023-03-29T22:26:19.997Z,46.47
2023-03-29T22:28:48.012Z,46.44
2023-03-29T22:31:17.174Z,46.72
2023-03-29T22:33:45.685Z,45.99
2023-03-29T22:36:15.232Z,46.54
2023-03-29T22:38:43.841Z,46.17
2023-03-29T22:41:11.982Z,46.58
2023-03-29T22:43:40.840Z,46.78
2023-03-29T22:46:09.425Z,46.34
2023-03-29T22:48:37.558Z,46.73
2023-03-29T22:51:06.064Z,46.74
2023-03-29T22:53:34.450Z,46.78
2023-03-29T22:56:02.438Z,47.07
2023-03-29T22:58:30.893Z,47.34
2023-03-29T23:00:59.023Z,47.28
2023-03-29T23:03:27.113Z,47.72
2023-03-29T23:05:56.532Z,47.93
2023-03-29T23:08:25.599Z,48.13
2023-03-29T23:10:53.437Z,47.99
2023-03-29T23:13:26.047Z,48.14
2023-03-29T23:15:55.268Z,48.15
2023-03-29T23:18:23.876Z,48.91
2023-03-29T23:20:54.886Z,48.95
2023-03-29T23:23:24.304Z,49.08
2023-03-29T23:25:52.554Z,49.45
2023-03-29T23:28:23.833Z,49.33
2023-03-29T23:30:58.128Z,50.01
2023-03-29T23:33:26.549Z,49.75
2023-03-29T23:35:54.728Z,49.46
2023-03-29T23:38:23.070Z,49.94
2023-03-29T23:40:54.643Z,49.84
2023-03-29T23:43:22.692Z,50.35
2023-03-29T23:45:55.834Z,50.50
2023-03-29T23:48:24.827Z,50.71
2023-03-29T23:50:52.569Z,50.29
2023-03-29T23:53:21.177Z,50.46
2023-03-29T23:55:49.425Z,50.33
2023-03-29T23:58:17.720Z,50.65
